Time;durP1;ratioP1;P1;durP2;ratioP2;P2;SDS_P1;SDS_P2;PMS_P1;PMS_P2;Temp;Humidity;BMP_temperature;BMP_pressure;BME280_temperature;BME280_humidity;BME280_pressure;Samples;Min_cycle;Max_cycle;Signal;HPM_P1;HPM_P2
2022/12/11 00:01:17;;;;;;;24.35;13.95;;;;;;;;;;4943410;28;20081;-75
2022/12/11 00:03:45;;;;;;;25.27;14.13;;;;;;;;;;4996074;28;20037;-75
2022/12/11 00:06:13;;;;;;;24.30;15.48;;;;;;;;;;4991608;28;20064;-74
2022/12/11 00:08:41;;;;;;;16.00;11.85;;;;;;;;;;4969976;28;20056;-74
2022/12/11 00:11:09;;;;;;;23.75;14.52;;;;;;;;;;4984623;28;20056;-74
2022/12/11 00:13:36;;;;;;;25.42;15.52;;;;;;;;;;4983661;28;20042;-74
2022/12/11 00:16:06;;;;;;;21.75;13.73;;;;;;;;;;4994856;28;20130;-74
2022/12/11 00:18:33;;;;;;;23.02;14.50;;;;;;;;;;5002219;28;20076;-74
2022/12/11 00:21:05;;;;;;;24.63;15.02;;;;;;;;;;5001229;28;20205;-74
2022/12/11 00:23:33;;;;;;;23.83;14.77;;;;;;;;;;4983808;28;20401;-75
2022/12/11 00:26:05;;;;;;;19.20;12.73;;;;;;;;;;4979031;28;20058;-75
2022/12/11 00:28:32;;;;;;;23.05;14.10;;;;;;;;;;5000985;28;20378;-75
2022/12/11 00:31:03;;;;;;;24.02;14.88;;;;;;;;;;4997587;28;20088;-75
2022/12/11 00:33:30;;;;;;;20.98;14.23;;;;;;;;;;5000899;28;20045;-74
2022/12/11 00:35:58;;;;;;;26.70;16.05;;;;;;;;;;5005373;28;20481;-75
2022/12/11 00:38:25;;;;;;;24.98;15.20;;;;;;;;;;4979510;28;20069;-75
2022/12/11 00:40:52;;;;;;;24.00;15.55;;;;;;;;;;5000898;28;20112;-75
2022/12/11 00:43:20;;;;;;;26.15;14.90;;;;;;;;;;4994365;28;20502;-74
2022/12/11 00:45:47;;;;;;;25.52;15.82;;;;;;;;;;4997257;28;20048;-75
2022/12/11 00:48:15;;;;;;;29.80;16.42;;;;;;;;;;5004371;28;20513;-75
2022/12/11 00:50:42;;;;;;;26.42;16.40;;;;;;;;;;4986916;28;20053;-75
2022/12/11 00:53:09;;;;;;;27.00;16.13;;;;;;;;;;4995235;28;20512;-74
2022/12/11 00:55:38;;;;;;;22.55;14.75;;;;;;;;;;4986902;28;20450;-74
2022/12/11 00:58:06;;;;;;;28.23;16.58;;;;;;;;;;4999175;28;20129;-74
2022/12/11 01:00:33;;;;;;;27.40;16.48;;;;;;;;;;4997373;28;20096;-75
2022/12/11 01:03:01;;;;;;;33.33;17.10;;;;;;;;;;4987333;28;20049;-74
2022/12/11 01:05:28;;;;;;;26.25;16.58;;;;;;;;;;5000427;28;20042;-74
2022/12/11 01:07:55;;;;;;;28.05;16.02;;;;;;;;;;5004575;28;20042;-74
2022/12/11 01:10:23;;;;;;;28.45;16.45;;;;;;;;;;4998472;28;20049;-74
2022/12/11 01:12:50;;;;;;;31.30;16.77;;;;;;;;;;5004810;28;20042;-74
2022/12/11 01:15:18;;;;;;;23.42;14.02;;;;;;;;;;4992978;28;20034;-74
2022/12/11 01:17:46;;;;;;;29.98;17.17;;;;;;;;;;5001202;28;20153;-75
2022/12/11 01:20:13;;;;;;;28.77;16.88;;;;;;;;;;4998666;28;20073;-75
2022/12/11 01:22:41;;;;;;;30.38;17.48;;;;;;;;;;4990121;28;20042;-74
2022/12/11 01:25:09;;;;;;;30.45;18.23;;;;;;;;;;5000316;28;20128;-74
2022/12/11 01:27:37;;;;;;;29.95;17.77;;;;;;;;;;5002182;28;20129;-75
2022/12/11 01:30:06;;;;;;;28.48;17.63;;;;;;;;;;4999274;28;20042;-75
2022/12/11 01:32:35;;;;;;;29.13;17.00;;;;;;;;;;4995436;28;20034;-74
2022/12/11 01:35:03;;;;;;;29.42;17.15;;;;;;;;;;4999412;28;20417;-74
2022/12/11 01:37:31;;;;;;;26.95;16.35;;;;;;;;;;4980805;28;20089;-74
2022/12/11 01:39:58;;;;;;;28.23;16.63;;;;;;;;;;5000646;28;20046;-74
2022/12/11 01:42:27;;;;;;;22.90;14.48;;;;;;;;;;4998739;28;20038;-74
2022/12/11 01:45:14;;;;;;;25.50;15.02;;;;;;;;;;4984346;28;20280;-74
2022/12/11 01:47:41;;;;;;;29.83;16.63;;;;;;;;;;4997351;28;20053;-74
2022/12/11 01:50:08;;;;;;;26.77;15.02;;;;;;;;;;4984527;28;20048;-74
2022/12/11 01:52:36;;;;;;;26.65;15.60;;;;;;;;;;4992537;28;20469;-74
2022/12/11 01:55:03;;;;;;;19.90;12.25;;;;;;;;;;5001379;28;20119;-74
2022/12/11 01:57:30;;;;;;;20.00;13.13;;;;;;;;;;5008170;28;20049;-74
2022/12/11 01:59:58;;;;;;;21.55;13.45;;;;;;;;;;4986336;28;20066;-74
2022/12/11 02:02:29;;;;;;;19.25;11.18;;;;;;;;;;4987589;28;20046;-74
2022/12/11 02:04:57;;;;;;;18.05;11.32;;;;;;;;;;4998090;28;20129;-74
2022/12/11 02:07:24;;;;;;;21.88;12.57;;;;;;;;;;5004507;28;20073;-74
2022/12/11 02:09:51;;;;;;;19.45;13.40;;;;;;;;;;5004031;28;20130;-74
2022/12/11 02:12:24;;;;;;;18.45;12.63;;;;;;;;;;4999078;28;20038;-74
2022/12/11 02:15:11;;;;;;;15.55;11.43;;;;;;;;;;4986165;28;20488;-74
2022/12/11 02:20:40;;;;;;;19.55;11.38;;;;;;;;;;4980969;28;20047;-77
2022/12/11 02:23:23;;;;;;;19.40;10.75;;;;;;;;;;4968786;28;20426;-77
2022/12/11 02:25:54;;;;;;;18.15;11.35;;;;;;;;;;4981827;28;20121;-78
2022/12/11 02:28:27;;;;;;;16.98;11.50;;;;;;;;;;4968229;28;21486;-78
2022/12/11 02:30:58;;;;;;;23.83;11.95;;;;;;;;;;4979806;28;20038;-77
2022/12/11 02:33:32;;;;;;;17.47;10.13;;;;;;;;;;4985342;28;20044;-77
2022/12/11 02:36:00;;;;;;;19.50;13.88;;;;;;;;;;4961152;28;20047;-77
2022/12/11 02:38:32;;;;;;;18.65;16.58;;;;;;;;;;4985816;28;20039;-77
2022/12/11 02:41:00;;;;;;;17.52;11.82;;;;;;;;;;4970902;28;20059;-77
2022/12/11 02:43:28;;;;;;;18.90;11.32;;;;;;;;;;4982617;28;20038;-76
2022/12/11 02:45:57;;;;;;;33.33;25.77;;;;;;;;;;4983520;28;20113;-76
2022/12/11 02:48:24;;;;;;;18.75;15.63;;;;;;;;;;4987998;28;20116;-76
2022/12/11 02:50:56;;;;;;;19.23;11.40;;;;;;;;;;4984215;28;20046;-77
2022/12/11 02:53:25;;;;;;;19.45;11.27;;;;;;;;;;4954277;28;20058;-77
2022/12/11 02:55:56;;;;;;;16.90;10.50;;;;;;;;;;4985755;28;20045;-75
2022/12/11 02:58:26;;;;;;;15.20;9.57;;;;;;;;;;4986646;28;20041;-76
2022/12/11 03:00:54;;;;;;;17.70;10.93;;;;;;;;;;4986658;28;20121;-76
2022/12/11 03:03:22;;;;;;;16.60;11.27;;;;;;;;;;4985733;28;20065;-76
2022/12/11 03:05:49;;;;;;;15.20;10.35;;;;;;;;;;4985482;28;20064;-75
2022/12/11 03:08:17;;;;;;;14.75;8.63;;;;;;;;;;4984124;28;20116;-77
2022/12/11 03:10:45;;;;;;;16.55;10.60;;;;;;;;;;4953367;28;20038;-77
2022/12/11 03:13:14;;;;;;;15.63;12.48;;;;;;;;;;4985185;28;20494;-76
2022/12/11 03:15:55;;;;;;;15.70;11.07;;;;;;;;;;4978250;28;20992;-76
2022/12/11 03:18:23;;;;;;;16.25;10.38;;;;;;;;;;4970607;28;20402;-74
2022/12/11 03:20:55;;;;;;;16.50;10.43;;;;;;;;;;4985131;28;20042;-75
2022/12/11 03:23:23;;;;;;;12.95;9.98;;;;;;;;;;4986047;28;20045;-76
2022/12/11 03:25:50;;;;;;;14.75;9.00;;;;;;;;;;4986391;28;20046;-75
2022/12/11 03:28:25;;;;;;;17.65;10.93;;;;;;;;;;4988955;28;20050;-74
2022/12/11 03:30:53;;;;;;;18.35;10.45;;;;;;;;;;4969394;28;20578;-74
2022/12/11 03:33:27;;;;;;;15.07;9.88;;;;;;;;;;4972717;28;20069;-74
2022/12/11 03:35:56;;;;;;;16.63;10.20;;;;;;;;;;4986671;28;20044;-75
2022/12/11 03:38:25;;;;;;;16.40;10.43;;;;;;;;;;4982757;28;20046;-74
2022/12/11 03:40:55;;;;;;;17.70;10.98;;;;;;;;;;4985665;28;20054;-73
2022/12/11 03:43:24;;;;;;;18.00;10.20;;;;;;;;;;4975083;28;20097;-73
2022/12/11 03:45:51;;;;;;;18.73;11.52;;;;;;;;;;4986278;28;20038;-74
2022/12/11 03:48:20;;;;;;;14.05;9.20;;;;;;;;;;4984901;28;20081;-73
2022/12/11 03:50:48;;;;;;;16.52;9.63;;;;;;;;;;4968898;28;20465;-74
2022/12/11 03:53:16;;;;;;;17.75;10.48;;;;;;;;;;4982070;28;20039;-73
2022/12/11 03:55:44;;;;;;;17.80;10.48;;;;;;;;;;4983533;28;20042;-74
2022/12/11 03:58:11;;;;;;;17.08;10.82;;;;;;;;;;4982016;28;20038;-72
2022/12/11 04:00:39;;;;;;;14.18;8.13;;;;;;;;;;4985378;28;20042;-73
2022/12/11 04:03:12;;;;;;;20.80;18.70;;;;;;;;;;4989924;28;20502;-73
2022/12/11 04:05:53;;;;;;;15.23;9.98;;;;;;;;;;4985219;28;20506;-72
2022/12/11 04:08:21;;;;;;;17.40;9.68;;;;;;;;;;4982738;28;20054;-72
2022/12/11 04:11:33;;;;;;;14.65;8.95;;;;;;;;;;4966780;28;20129;-73
2022/12/11 04:13:40;;;;;;;14.63;9.63;;;;;;;;;;4985055;28;20374;-72
2022/12/11 04:16:07;;;;;;;17.17;10.63;;;;;;;;;;4981847;28;20054;-72
2022/12/11 04:24:16;;;;;;;14.77;9.40;;;;;;;;;;4981693;28;20108;-72
2022/12/11 04:26:45;;;;;;;16.58;14.82;;;;;;;;;;4966462;28;20072;-72
2022/12/11 04:29:13;;;;;;;14.98;10.25;;;;;;;;;;4982257;28;20093;-72
2022/12/11 04:31:40;;;;;;;17.42;10.73;;;;;;;;;;4985120;28;20053;-72
2022/12/11 04:34:08;;;;;;;19.10;10.45;;;;;;;;;;4983567;28;20031;-72
2022/12/11 04:36:35;;;;;;;12.80;8.13;;;;;;;;;;4988330;28;20113;-72
2022/12/11 04:39:04;;;;;;;15.65;10.70;;;;;;;;;;4969223;28;20050;-71
2022/12/11 04:41:31;;;;;;;17.45;10.70;;;;;;;;;;4970908;28;20050;-72
2022/12/11 04:43:58;;;;;;;16.10;10.20;;;;;;;;;;4983092;28;20046;-71
2022/12/11 04:46:26;;;;;;;14.05;9.63;;;;;;;;;;4983334;28;20836;-72
2022/12/11 04:48:53;;;;;;;14.82;9.90;;;;;;;;;;4984712;28;20050;-71
2022/12/11 04:51:24;;;;;;;16.60;10.80;;;;;;;;;;4986290;28;20047;-72
2022/12/11 04:53:51;;;;;;;15.90;9.90;;;;;;;;;;4983102;28;20034;-72
2022/12/11 04:56:19;;;;;;;13.85;9.23;;;;;;;;;;4984548;28;20414;-71
2022/12/11 04:58:46;;;;;;;13.63;9.27;;;;;;;;;;4984641;28;20038;-73
2022/12/11 05:01:15;;;;;;;15.20;9.30;;;;;;;;;;4982325;28;20514;-72
2022/12/11 05:03:43;;;;;;;16.23;10.13;;;;;;;;;;4984912;28;20314;-72
2022/12/11 05:06:11;;;;;;;11.20;8.32;;;;;;;;;;4951119;28;20046;-73
2022/12/11 05:08:39;;;;;;;11.68;8.05;;;;;;;;;;4986453;28;20034;-73
2022/12/11 05:11:07;;;;;;;16.35;10.05;;;;;;;;;;4984295;28;20402;-72
2022/12/11 05:13:34;;;;;;;14.70;9.38;;;;;;;;;;4985840;28;20035;-72
2022/12/11 05:16:06;;;;;;;13.93;9.55;;;;;;;;;;4963954;28;20047;-72
2022/12/11 05:18:33;;;;;;;14.25;7.93;;;;;;;;;;4970096;28;20050;-72
2022/12/11 05:21:02;;;;;;;14.82;10.27;;;;;;;;;;4967379;28;20097;-72
2022/12/11 05:23:29;;;;;;;14.95;10.07;;;;;;;;;;4984609;28;20368;-71
2022/12/11 05:25:58;;;;;;;14.60;9.75;;;;;;;;;;4982885;28;20685;-71
2022/12/11 05:28:26;;;;;;;14.48;9.07;;;;;;;;;;4990098;28;20038;-72
2022/12/11 05:30:57;;;;;;;14.85;10.18;;;;;;;;;;4984826;28;20533;-71
2022/12/11 05:33:25;;;;;;;10.70;8.00;;;;;;;;;;4987094;28;20380;-72
2022/12/11 05:35:52;;;;;;;11.77;7.68;;;;;;;;;;4970256;28;20312;-71
2022/12/11 05:38:20;;;;;;;12.75;8.75;;;;;;;;;;4987417;28;20046;-73
2022/12/11 05:40:57;;;;;;;15.63;9.88;;;;;;;;;;4989227;28;20050;-71
2022/12/11 05:43:26;;;;;;;12.65;8.63;;;;;;;;;;4986843;28;20544;-71
2022/12/11 05:45:53;;;;;;;12.27;9.27;;;;;;;;;;4984943;28;20092;-72
2022/12/11 05:48:21;;;;;;;11.38;8.38;;;;;;;;;;4970765;28;20061;-72
2022/12/11 05:51:01;;;;;;;13.10;9.13;;;;;;;;;;4970249;28;20640;-72
2022/12/11 05:53:29;;;;;;;12.32;8.38;;;;;;;;;;4988568;28;20047;-72
2022/12/11 05:56:03;;;;;;;13.18;11.63;;;;;;;;;;4987134;28;20047;-71
2022/12/11 05:58:31;;;;;;;12.55;9.00;;;;;;;;;;4985333;28;20047;-73
2022/12/11 06:00:58;;;;;;;13.20;8.90;;;;;;;;;;4985436;28;20069;-72
2022/12/11 06:03:26;;;;;;;13.93;9.60;;;;;;;;;;4965106;28;20053;-73
2022/12/11 06:05:53;;;;;;;16.52;9.93;;;;;;;;;;4988083;28;20046;-72
2022/12/11 06:08:20;;;;;;;12.05;8.90;;;;;;;;;;4967805;28;20073;-72
2022/12/11 06:10:48;;;;;;;15.07;8.93;;;;;;;;;;4988513;28;20073;-73
2022/12/11 06:13:16;;;;;;;14.75;8.23;;;;;;;;;;4986931;28;20054;-73
2022/12/11 06:15:43;;;;;;;13.98;11.93;;;;;;;;;;4967793;28;20121;-72
2022/12/11 06:18:11;;;;;;;15.23;9.27;;;;;;;;;;4985918;28;20045;-74
2022/12/11 06:20:38;;;;;;;14.18;9.50;;;;;;;;;;4971441;28;20030;-73
2022/12/11 06:23:05;;;;;;;12.52;8.57;;;;;;;;;;4990070;28;20060;-72
2022/12/11 06:25:33;;;;;;;13.40;8.55;;;;;;;;;;4985681;28;20038;-73
2022/12/11 06:28:00;;;;;;;10.75;7.95;;;;;;;;;;4983959;28;20409;-72
2022/12/11 06:30:28;;;;;;;14.55;8.63;;;;;;;;;;4986723;28;20046;-72
2022/12/11 06:33:05;;;;;;;14.80;8.52;;;;;;;;;;4984233;28;20038;-72
2022/12/11 06:35:32;;;;;;;14.43;8.68;;;;;;;;;;4967587;28;20050;-72
2022/12/11 06:38:07;;;;;;;12.45;7.72;;;;;;;;;;4970328;28;20038;-73
2022/12/11 06:40:35;;;;;;;13.18;8.90;;;;;;;;;;4969589;28;20042;-73
2022/12/11 06:43:02;;;;;;;14.73;11.35;;;;;;;;;;4986330;28;20047;-73
2022/12/11 06:45:29;;;;;;;12.65;8.88;;;;;;;;;;4982471;28;20052;-73
2022/12/11 06:47:57;;;;;;;14.43;9.50;;;;;;;;;;4989698;28;20101;-73
2022/12/11 06:50:25;;;;;;;14.00;9.15;;;;;;;;;;4986379;28;20042;-73
2022/12/11 06:52:52;;;;;;;13.82;8.82;;;;;;;;;;4985436;28;20125;-73
2022/12/11 06:55:20;;;;;;;14.98;9.13;;;;;;;;;;4984504;28;20034;-72
2022/12/11 06:57:47;;;;;;;10.80;7.80;;;;;;;;;;4984263;28;20038;-72
2022/12/11 07:00:15;;;;;;;13.18;9.80;;;;;;;;;;4982377;28;20054;-73
2022/12/11 07:02:42;;;;;;;11.80;8.43;;;;;;;;;;4984590;28;20035;-73
2022/12/11 07:05:09;;;;;;;13.82;7.65;;;;;;;;;;4986368;28;20045;-73
2022/12/11 07:07:37;;;;;;;13.98;9.05;;;;;;;;;;4988300;28;20298;-73
2022/12/11 07:10:05;;;;;;;15.30;9.32;;;;;;;;;;4987905;28;20116;-73
2022/12/11 07:12:36;;;;;;;;;;;;;;;;;;4982962;28;20153;-72
2022/12/11 07:15:04;;;;;;;13.13;7.90;;;;;;;;;;4935333;28;19933;-73
2022/12/11 07:17:32;;;;;;;14.00;8.43;;;;;;;;;;4985239;28;20049;-73
2022/12/11 07:19:59;;;;;;;12.32;8.20;;;;;;;;;;4989894;28;20100;-73
2022/12/11 07:22:28;;;;;;;15.52;9.27;;;;;;;;;;4985386;28;20129;-73
2022/12/11 07:24:55;;;;;;;10.73;7.97;;;;;;;;;;4975690;28;20046;-72
2022/12/11 07:27:23;;;;;;;17.75;13.80;;;;;;;;;;4966686;28;20042;-72
2022/12/11 07:29:50;;;;;;;15.85;10.35;;;;;;;;;;4984677;28;20114;-73
2022/12/11 07:32:18;;;;;;;14.75;9.20;;;;;;;;;;4983326;28;20050;-73
2022/12/11 07:34:45;;;;;;;18.40;10.27;;;;;;;;;;4981436;28;20148;-72
2022/12/11 07:37:18;;;;;;;15.15;10.00;;;;;;;;;;4970620;28;20387;-73
2022/12/11 07:39:45;;;;;;;14.65;9.88;;;;;;;;;;4982458;28;20046;-73
2022/12/11 07:42:12;;;;;;;18.50;10.88;;;;;;;;;;4982965;28;20047;-73
2022/12/11 07:44:40;;;;;;;15.00;12.02;;;;;;;;;;4966810;28;20121;-73
2022/12/11 07:47:07;;;;;;;16.60;10.68;;;;;;;;;;4985190;28;20045;-74
2022/12/11 07:49:34;;;;;;;14.55;9.02;;;;;;;;;;4983862;28;20086;-72
2022/12/11 07:52:01;;;;;;;16.17;10.18;;;;;;;;;;4963896;28;20456;-74
2022/12/11 07:54:29;;;;;;;15.57;10.40;;;;;;;;;;4981159;28;20044;-74
2022/12/11 07:56:56;;;;;;;14.55;9.32;;;;;;;;;;4982758;28;20049;-73
2022/12/11 07:59:23;;;;;;;15.65;13.10;;;;;;;;;;4972128;28;20136;-72
2022/12/11 08:01:51;;;;;;;17.60;11.10;;;;;;;;;;4942362;28;20054;-74
2022/12/11 08:04:18;;;;;;;17.25;14.55;;;;;;;;;;4977077;28;20045;-72
2022/12/11 08:06:46;;;;;;;15.13;9.95;;;;;;;;;;4970325;28;20038;-74
2022/12/11 08:09:13;;;;;;;15.05;12.32;;;;;;;;;;4955328;28;20486;-73
2022/12/11 08:11:51;;;;;;;15.45;9.82;;;;;;;;;;4969886;28;20126;-75
2022/12/11 08:14:18;;;;;;;18.83;11.43;;;;;;;;;;4976125;28;20038;-74
2022/12/11 08:16:46;;;;;;;14.60;8.98;;;;;;;;;;4986569;28;20458;-73
2022/12/11 08:19:14;;;;;;;23.45;21.08;;;;;;;;;;5001055;23;20139;-87
2022/12/11 08:21:42;;;;;;;15.57;9.57;;;;;;;;;;5007040;28;20088;-87
2022/12/11 08:27:10;;;;;;;25.55;22.95;;;;;;;;;;5004377;28;20050;-85
2022/12/11 08:29:40;;;;;;;15.38;10.25;;;;;;;;;;5008201;28;20046;-86
2022/12/11 08:32:07;;;;;;;16.30;10.15;;;;;;;;;;4988406;28;20200;-86
2022/12/11 08:34:39;;;;;;;14.80;10.00;;;;;;;;;;5004835;28;20042;-85
2022/12/11 08:37:06;;;;;;;23.75;21.67;;;;;;;;;;4990806;28;20073;-86
2022/12/11 08:39:33;;;;;;;19.17;12.02;;;;;;;;;;5007560;28;20038;-86
2022/12/11 08:42:04;;;;;;;15.13;10.25;;;;;;;;;;5006852;28;20038;-86
2022/12/11 08:44:34;;;;;;;15.20;9.25;;;;;;;;;;5008336;28;20053;-86
2022/12/11 08:47:02;;;;;;;15.77;11.85;;;;;;;;;;4990056;28;20066;-87
2022/12/11 08:49:29;;;;;;;16.40;13.68;;;;;;;;;;4992551;28;20084;-86
2022/12/11 08:52:00;;;;;;;13.75;9.27;;;;;;;;;;5008464;28;20516;-86
2022/12/11 08:54:28;;;;;;;14.48;8.82;;;;;;;;;;4994080;28;20041;-85
2022/12/11 08:56:55;;;;;;;16.52;10.43;;;;;;;;;;5010645;28;20045;-85
2022/12/11 08:59:24;;;;;;;14.75;9.43;;;;;;;;;;4988222;28;20050;-86
2022/12/11 09:01:52;;;;;;;13.95;9.70;;;;;;;;;;5022569;28;20046;-87
2022/12/11 09:04:19;;;;;;;14.07;9.65;;;;;;;;;;5010088;28;20069;-87
2022/12/11 09:06:48;;;;;;;22.55;20.25;;;;;;;;;;4996844;28;20050;-86
2022/12/11 09:09:15;;;;;;;15.05;11.45;;;;;;;;;;5009933;28;20121;-86
2022/12/11 09:11:42;;;;;;;16.38;9.95;;;;;;;;;;5006626;28;20053;-86
2022/12/11 09:14:10;;;;;;;15.75;10.05;;;;;;;;;;4986761;28;20061;-86
2022/12/11 09:16:39;;;;;;;18.20;12.25;;;;;;;;;;5005482;28;20680;-86
2022/12/11 09:19:07;;;;;;;15.23;9.57;;;;;;;;;;4994964;28;20053;-86
2022/12/11 09:21:35;;;;;;;17.58;11.43;;;;;;;;;;5013917;28;20041;-88
2022/12/11 09:24:04;;;;;;;15.10;10.52;;;;;;;;;;4994903;28;20572;-87
2022/12/11 09:26:31;;;;;;;18.30;11.23;;;;;;;;;;4996628;28;20130;-87
2022/12/11 09:29:17;;;;;;;14.15;11.02;;;;;;;;;;4994015;28;20412;-88
2022/12/11 09:31:45;;;;;;;16.40;10.50;;;;;;;;;;5007686;28;20037;-88
2022/12/11 09:34:19;;;;;;;16.13;9.18;;;;;;;;;;4979094;28;20054;-89
2022/12/11 09:36:58;;;;;;;13.30;9.52;;;;;;;;;;4991059;28;20494;-89
2022/12/11 09:39:28;;;;;;;17.67;11.15;;;;;;;;;;4993618;28;20045;-88
2022/12/11 09:41:55;;;;;;;14.68;10.55;;;;;;;;;;5012627;28;20050;-88
2022/12/11 09:44:35;;;;;;;18.42;16.27;;;;;;;;;;4976114;23;20054;-77
2022/12/11 09:47:02;;;;;;;16.58;11.20;;;;;;;;;;4968602;28;20039;-74
2022/12/11 09:49:35;;;;;;;17.02;11.68;;;;;;;;;;4981453;28;20095;-75
2022/12/11 09:52:09;;;;;;;15.40;10.75;;;;;;;;;;4969836;28;20055;-74
2022/12/11 09:54:37;;;;;;;16.08;9.50;;;;;;;;;;4965313;28;20694;-75
2022/12/11 09:57:04;;;;;;;16.73;12.45;;;;;;;;;;4967141;28;20537;-74
2022/12/11 09:59:53;;;;;;;18.13;11.48;;;;;;;;;;4965289;28;20050;-75
2022/12/11 10:02:40;;;;;;;19.58;11.93;;;;;;;;;;4963260;28;20057;-74
2022/12/11 10:05:07;;;;;;;15.80;10.48;;;;;;;;;;4964978;28;20054;-75
2022/12/11 10:08:07;;;;;;;12.68;9.05;;;;;;;;;;4963916;28;20051;-75
2022/12/11 10:10:42;;;;;;;15.02;9.27;;;;;;;;;;4935953;28;20058;-75
2022/12/11 10:13:21;;;;;;;13.93;11.70;;;;;;;;;;4962335;28;20518;-76
2022/12/11 10:15:52;;;;;;;14.48;8.57;;;;;;;;;;4953038;28;20062;-75
2022/12/11 10:18:21;;;;;;;12.57;10.02;;;;;;;;;;4946220;28;20102;-76
2022/12/11 10:20:50;;;;;;;11.65;7.70;;;;;;;;;;4967557;28;20372;-75
2022/12/11 10:23:19;;;;;;;14.35;9.60;;;;;;;;;;4965757;28;20086;-77
2022/12/11 10:25:53;;;;;;;19.63;13.00;;;;;;;;;;4966482;28;20049;-73
2022/12/11 10:28:21;;;;;;;15.80;10.80;;;;;;;;;;4962562;28;20074;-74
2022/12/11 10:30:48;;;;;;;62.15;30.02;;;;;;;;;;4963369;28;20046;-72
2022/12/11 10:33:25;;;;;;;17.73;12.38;;;;;;;;;;4963754;28;20057;-75
2022/12/11 10:35:54;;;;;;;12.88;9.25;;;;;;;;;;4967417;28;20039;-75
2022/12/11 10:38:38;;;;;;;15.30;9.50;;;;;;;;;;4964732;28;20043;-75
2022/12/11 10:41:11;;;;;;;12.02;10.82;;;;;;;;;;4962547;28;20041;-74
2022/12/11 10:43:41;;;;;;;13.75;8.73;;;;;;;;;;4967732;28;20043;-76
2022/12/11 10:46:16;;;;;;;15.30;9.32;;;;;;;;;;4960167;28;20051;-75
2022/12/11 10:49:19;;;;;;;10.38;8.20;;;;;;;;;;4967459;28;20062;-74
2022/12/11 10:51:47;;;;;;;15.75;10.07;;;;;;;;;;4938092;28;20890;-76
2022/12/11 10:54:33;;;;;;;15.68;10.27;;;;;;;;;;4962413;28;20050;-74
2022/12/11 10:57:01;;;;;;;14.00;12.15;;;;;;;;;;4971975;28;20118;-76
2022/12/11 10:59:43;;;;;;;27.05;24.50;;;;;;;;;;4968565;28;20039;-76
2022/12/11 11:02:20;;;;;;;37.92;34.50;;;;;;;;;;4975926;28;20050;-75
2022/12/11 11:04:47;;;;;;;50.13;45.08;;;;;;;;;;4966900;28;20051;-78
2022/12/11 11:07:20;;;;;;;13.60;10.93;;;;;;;;;;4958311;28;20491;-76
2022/12/11 11:09:48;;;;;;;13.00;8.70;;;;;;;;;;4962397;28;20050;-75
2022/12/11 11:12:19;;;;;;;23.30;21.40;;;;;;;;;;4963351;28;20042;-74
2022/12/11 11:14:46;;;;;;;15.40;9.55;;;;;;;;;;4964755;28;20426;-75
2022/12/11 11:20:29;;;;;;;13.00;9.60;;;;;;;;;;4961538;28;20065;-76
2022/12/11 11:22:58;;;;;;;13.00;11.55;;;;;;;;;;4955286;28;20054;-75
2022/12/11 11:25:29;;;;;;;30.33;27.67;;;;;;;;;;4963416;28;20051;-75
2022/12/11 11:28:01;;;;;;;20.43;18.43;;;;;;;;;;4971449;28;20050;-76
2022/12/11 11:30:29;;;;;;;;;;;;;;;;;;4965715;28;20105;-75
2022/12/11 11:33:01;;;;;;;13.10;8.55;;;;;;;;;;4965097;28;19922;-76
2022/12/11 11:35:29;;;;;;;10.35;8.13;;;;;;;;;;4963752;28;20050;-75
2022/12/11 11:38:09;;;;;;;15.68;13.88;;;;;;;;;;4964663;28;20035;-73
2022/12/11 11:40:39;;;;;;;15.13;12.43;;;;;;;;;;4959871;28;20054;-76
2022/12/11 11:43:12;;;;;;;12.95;9.43;;;;;;;;;;4963761;28;20376;-76
2022/12/11 11:45:43;;;;;;;23.58;21.08;;;;;;;;;;4962755;28;20077;-75
2022/12/11 11:48:13;;;;;;;11.48;10.27;;;;;;;;;;4949430;28;20047;-73
2022/12/11 11:50:43;;;;;;;10.50;8.75;;;;;;;;;;4973762;28;20113;-73
2022/12/11 11:53:29;;;;;;;12.13;8.10;;;;;;;;;;4980119;28;20039;-74
2022/12/11 11:56:14;;;;;;;31.35;27.92;;;;;;;;;;4978970;28;20049;-73
2022/12/11 11:58:54;;;;;;;13.98;9.82;;;;;;;;;;4969507;28;20070;-75
2022/12/11 12:01:23;;;;;;;9.95;7.10;;;;;;;;;;4960797;28;20039;-78
2022/12/11 12:03:51;;;;;;;12.85;8.85;;;;;;;;;;4959494;28;20051;-76
2022/12/11 12:06:33;;;;;;;75.38;69.82;;;;;;;;;;4978694;28;20042;-74
2022/12/11 12:09:19;;;;;;;12.15;8.43;;;;;;;;;;4960738;28;20047;-74
2022/12/11 12:11:48;;;;;;;13.60;7.68;;;;;;;;;;4959350;28;20070;-75
2022/12/11 12:14:24;;;;;;;14.10;11.18;;;;;;;;;;4963166;28;20046;-75
2022/12/11 12:17:17;;;;;;;13.32;10.30;;;;;;;;;;4946705;28;20514;-74
2022/12/11 12:19:54;;;;;;;14.35;9.77;;;;;;;;;;4962780;28;20042;-75
2022/12/11 12:22:37;;;;;;;11.50;8.00;;;;;;;;;;4947233;28;20066;-76
2022/12/11 12:25:15;;;;;;;12.13;8.20;;;;;;;;;;4964913;28;20046;-76
2022/12/11 12:27:42;;;;;;;9.00;7.20;;;;;;;;;;4949553;28;20078;-75
2022/12/11 12:30:22;;;;;;;12.80;8.02;;;;;;;;;;4964479;28;20075;-75
2022/12/11 12:33:10;;;;;;;15.02;13.55;;;;;;;;;;4959158;28;20047;-76
2022/12/11 12:35:44;;;;;;;10.80;8.45;;;;;;;;;;4963483;28;20150;-74
2022/12/11 12:38:20;;;;;;;12.73;8.35;;;;;;;;;;4966292;28;20038;-74
2022/12/11 12:40:48;;;;;;;16.05;14.43;;;;;;;;;;4929867;28;20682;-75
2022/12/11 12:43:25;;;;;;;9.93;7.40;;;;;;;;;;4946826;28;20530;-76
2022/12/11 12:46:03;;;;;;;9.07;6.80;;;;;;;;;;4963897;28;20047;-75
2022/12/11 12:48:33;;;;;;;9.95;8.00;;;;;;;;;;4963848;28;20061;-77
2022/12/11 12:51:00;;;;;;;14.00;12.63;;;;;;;;;;4964863;28;20039;-76
2022/12/11 12:53:31;;;;;;;10.38;8.23;;;;;;;;;;4961327;28;20039;-75
2022/12/11 12:55:59;;;;;;;12.55;11.43;;;;;;;;;;4964158;28;20039;-75
2022/12/11 12:58:46;;;;;;;8.73;6.05;;;;;;;;;;4964738;28;20487;-74
2022/12/11 13:01:24;;;;;;;7.95;6.18;;;;;;;;;;4942936;28;20066;-75
2022/12/11 13:04:05;;;;;;;8.88;6.90;;;;;;;;;;4961770;28;20049;-75
2022/12/11 13:06:43;;;;;;;39.72;36.72;;;;;;;;;;4962503;28;20050;-76
2022/12/11 13:09:27;;;;;;;13.02;11.82;;;;;;;;;;4960308;28;20055;-76
2022/12/11 13:11:59;;;;;;;7.03;6.30;;;;;;;;;;4952376;28;20539;-74
2022/12/11 13:14:32;;;;;;;9.75;7.90;;;;;;;;;;4935619;28;20043;-75
2022/12/11 13:17:19;;;;;;;8.85;7.95;;;;;;;;;;4949075;28;20050;-74
2022/12/11 13:19:47;;;;;;;8.95;6.00;;;;;;;;;;4959289;28;20039;-76
2022/12/11 13:22:23;;;;;;;9.85;7.40;;;;;;;;;;4971460;28;20051;-76
2022/12/11 13:25:03;;;;;;;7.55;6.53;;;;;;;;;;4968359;28;20138;-76
2022/12/11 13:27:37;;;;;;;7.88;5.90;;;;;;;;;;4984028;28;20042;-75
2022/12/11 13:30:16;;;;;;;8.52;7.55;;;;;;;;;;4960168;28;20046;-75
2022/12/11 13:33:00;;;;;;;47.03;43.25;;;;;;;;;;4968952;28;20052;-72
2022/12/11 13:35:28;;;;;;;30.00;27.38;;;;;;;;;;4964615;28;20036;-75
2022/12/11 13:38:01;;;;;;;22.35;20.38;;;;;;;;;;4958340;28;20050;-75
2022/12/11 13:40:28;;;;;;;;;;;;;;;;;;4964506;28;20053;-73
2022/12/11 13:43:02;;;;;;;25.40;23.52;;;;;;;;;;4964774;28;19922;-75
2022/12/11 13:45:45;;;;;;;37.78;34.75;;;;;;;;;;4938293;28;20885;-76
2022/12/11 13:48:17;;;;;;;9.13;6.45;;;;;;;;;;4940053;28;20074;-73
2022/12/11 13:50:45;;;;;;;;;;;;;;;;;;4961771;28;20038;-73
2022/12/11 13:53:17;;;;;;;8.95;6.05;;;;;;;;;;4963635;28;20033;-75
2022/12/11 13:55:54;;;;;;;7.32;5.72;;;;;;;;;;4964116;28;20279;-75
2022/12/11 13:58:41;;;;;;;10.73;9.73;;;;;;;;;;4969436;28;20057;-74
2022/12/11 14:01:11;;;;;;;8.52;7.63;;;;;;;;;;4968688;28;20150;-74
2022/12/11 14:03:39;;;;;;;6.97;5.05;;;;;;;;;;4963816;28;20043;-73
2022/12/11 14:06:11;;;;;;;7.68;6.88;;;;;;;;;;4969242;28;20064;-74
2022/12/11 14:08:47;;;;;;;8.27;7.45;;;;;;;;;;4972829;28;20070;-75
2022/12/11 14:11:23;;;;;;;7.70;6.93;;;;;;;;;;4961028;28;20058;-75
2022/12/11 14:13:50;;;;;;;11.55;10.48;;;;;;;;;;4962121;28;20046;-74
2022/12/11 14:16:20;;;;;;;8.80;7.65;;;;;;;;;;4964372;28;20046;-75
2022/12/11 14:18:49;;;;;;;7.22;5.60;;;;;;;;;;4994107;22;20146;-71
2022/12/11 14:21:17;;;;;;;8.30;7.25;;;;;;;;;;5034622;28;20091;-71
2022/12/11 14:23:50;;;;;;;8.57;6.07;;;;;;;;;;5031826;28;20076;-71
2022/12/11 14:26:19;;;;;;;13.25;12.02;;;;;;;;;;5015075;28;20068;-71
2022/12/11 14:28:47;;;;;;;7.75;6.20;;;;;;;;;;5012365;28;20049;-71
2022/12/11 14:31:16;;;;;;;10.52;7.18;;;;;;;;;;5038670;28;20051;-71
2022/12/11 14:33:47;;;;;;;8.77;6.32;;;;;;;;;;5016728;28;20041;-73
2022/12/11 14:36:16;;;;;;;17.73;16.38;;;;;;;;;;5036697;28;20049;-72
2022/12/11 14:38:48;;;;;;;9.77;6.75;;;;;;;;;;5021000;28;20041;-71
2022/12/11 14:41:19;;;;;;;9.80;7.10;;;;;;;;;;5021894;28;20057;-71
2022/12/11 14:43:49;;;;;;;8.85;6.88;;;;;;;;;;5025884;28;20041;-72
2022/12/11 14:46:17;;;;;;;8.82;6.63;;;;;;;;;;5025360;28;20586;-72
2022/12/11 14:48:51;;;;;;;11.57;7.40;;;;;;;;;;5023715;28;20530;-70
2022/12/11 14:51:27;;;;;;;9.30;7.18;;;;;;;;;;5042860;28;20504;-71
2022/12/11 14:53:54;;;;;;;9.90;6.95;;;;;;;;;;5047244;28;20128;-71
2022/12/11 14:56:27;;;;;;;10.98;7.93;;;;;;;;;;5046667;28;20041;-71
2022/12/11 14:58:58;;;;;;;23.40;21.48;;;;;;;;;;5047607;28;20044;-72
2022/12/11 15:01:33;;;;;;;10.88;7.07;;;;;;;;;;5013773;28;20076;-72